Time;durP1;ratioP1;P1;durP2;ratioP2;P2;SDS_P1;SDS_P2;PMS_P1;PMS_P2;Temp;Humidity;BMP_temperature;BMP_pressure;BME280_temperature;BME280_humidity;BME280_pressure;Samples;Min_cycle;Max_cycle;Signal;HPM_P1;HPM_P2
2021/10/04 00:01:15;;;;;;;5.13;2.42;;;11.50;99.90;;;;;;5041431;28;20037;-68
2021/10/04 00:03:41;;;;;;;9.23;3.40;;;11.50;99.90;;;;;;5020192;28;20134;-68
2021/10/04 00:06:07;;;;;;;8.82;2.63;;;11.50;99.90;;;;;;5036378;28;21095;-68
2021/10/04 00:08:33;;;;;;;6.13;2.63;;;11.50;99.90;;;;;;5023740;28;20407;-68
2021/10/04 00:11:02;;;;;;;5.28;2.63;;;11.50;99.90;;;;;;5037541;28;20215;-68
2021/10/04 00:13:28;;;;;;;8.05;3.17;;;11.50;99.90;;;;;;5037301;28;20053;-68
2021/10/04 00:15:54;;;;;;;3.47;2.15;;;11.50;99.90;;;;;;5026145;28;20403;-68
2021/10/04 00:18:20;;;;;;;6.60;2.47;;;11.50;99.90;;;;;;5043405;28;20040;-68
2021/10/04 00:20:45;;;;;;;10.45;2.53;;;11.50;99.90;;;;;;5023637;28;20164;-68
2021/10/04 00:23:14;;;;;;;6.40;1.90;;;11.50;99.90;;;;;;5025929;28;20133;-69
2021/10/04 00:25:40;;;;;;;5.53;2.00;;;11.50;99.90;;;;;;5030141;28;20076;-68
2021/10/04 00:28:06;;;;;;;8.57;1.95;;;11.50;99.90;;;;;;5060561;28;20080;-68
2021/10/04 00:30:32;;;;;;;4.78;2.00;;;11.50;99.90;;;;;;5027062;28;20044;-68
2021/10/04 00:32:57;;;;;;;6.85;2.72;;;11.50;99.90;;;;;;5029812;28;20456;-68
2021/10/04 00:35:25;;;;;;;9.68;2.55;;;11.50;99.90;;;;;;5021893;28;20033;-68
2021/10/04 00:37:51;;;;;;;9.43;2.10;;;11.50;99.90;;;;;;5023440;28;20126;-68
2021/10/04 00:40:27;;;;;;;6.70;1.95;;;11.50;99.90;;;;;;5030146;28;20045;-68
2021/10/04 00:42:53;;;;;;;5.93;1.65;;;11.50;99.90;;;;;;5041168;28;20692;-68
2021/10/04 00:45:19;;;;;;;7.53;1.85;;;11.50;99.90;;;;;;5060181;28;20052;-68
2021/10/04 00:47:45;;;;;;;8.25;2.20;;;11.50;99.90;;;;;;5035771;28;20044;-68
2021/10/04 00:50:13;;;;;;;12.35;2.20;;;11.40;99.90;;;;;;5015275;28;20577;-68
2021/10/04 00:52:39;;;;;;;4.70;2.30;;;11.40;99.90;;;;;;5023658;28;20153;-68
2021/10/04 00:55:07;;;;;;;4.18;1.95;;;11.40;99.90;;;;;;5036871;28;20467;-68
2021/10/04 00:57:33;;;;;;;5.75;1.98;;;11.40;99.90;;;;;;5018515;28;20088;-68
2021/10/04 00:59:59;;;;;;;4.80;2.10;;;11.40;99.90;;;;;;5021612;28;20136;-68
2021/10/04 01:02:24;;;;;;;9.98;2.35;;;11.40;99.90;;;;;;5026683;28;20535;-68
2021/10/04 01:04:50;;;;;;;6.50;2.50;;;11.40;99.90;;;;;;5018736;28;20442;-68
2021/10/04 01:07:16;;;;;;;5.00;2.20;;;11.40;99.90;;;;;;5021092;28;20041;-68
2021/10/04 01:09:42;;;;;;;7.00;2.40;;;11.40;99.90;;;;;;5041566;28;20092;-68
2021/10/04 01:12:09;;;;;;;3.63;2.08;;;11.40;99.90;;;;;;5041557;28;20076;-68
2021/10/04 01:14:35;;;;;;;7.10;2.05;;;11.40;99.90;;;;;;5039509;28;20534;-68
2021/10/04 01:17:01;;;;;;;12.85;2.33;;;11.40;99.90;;;;;;5038086;28;20065;-68
2021/10/04 01:19:27;;;;;;;7.55;2.30;;;11.40;99.90;;;;;;5016470;28;20075;-68
2021/10/04 01:21:52;;;;;;;6.78;2.08;;;11.40;99.90;;;;;;5025030;28;20040;-68
2021/10/04 01:24:18;;;;;;;4.45;1.73;;;11.40;99.90;;;;;;5010683;28;20036;-68
2021/10/04 01:26:44;;;;;;;4.07;1.67;;;11.40;99.90;;;;;;5045898;28;20401;-68
2021/10/04 01:29:11;;;;;;;11.05;2.15;;;11.40;99.90;;;;;;5026944;28;20041;-68
2021/10/04 01:31:36;;;;;;;6.78;2.38;;;11.40;99.90;;;;;;5041942;28;20447;-68
2021/10/04 01:34:09;;;;;;;5.68;1.70;;;11.40;99.90;;;;;;5041012;28;20124;-68
2021/10/04 01:36:35;;;;;;;5.80;1.60;;;11.40;99.90;;;;;;5028819;28;20053;-68
2021/10/04 01:39:01;;;;;;;5.70;2.00;;;11.40;99.90;;;;;;5038831;28;20045;-68
2021/10/04 01:41:27;;;;;;;5.50;2.17;;;11.30;99.90;;;;;;5041676;28;20045;-68
2021/10/04 01:43:53;;;;;;;4.70;1.90;;;11.40;99.90;;;;;;5039101;28;20487;-68
2021/10/04 01:46:19;;;;;;;9.70;2.10;;;11.40;99.90;;;;;;5027120;28;20045;-68
2021/10/04 01:48:45;;;;;;;7.30;2.90;;;11.40;99.90;;;;;;5032757;28;20046;-68
2021/10/04 01:51:12;;;;;;;4.55;2.00;;;11.40;99.90;;;;;;5043260;28;20036;-68
2021/10/04 01:53:40;;;;;;;7.10;2.05;;;11.40;99.90;;;;;;5022160;28;20052;-68
2021/10/04 01:56:06;;;;;;;5.10;2.08;;;11.40;99.90;;;;;;5044393;28;20398;-68
2021/10/04 01:58:32;;;;;;;8.85;2.17;;;11.40;99.90;;;;;;5027432;28;20039;-68
2021/10/04 02:00:59;;;;;;;7.35;2.40;;;11.40;99.90;;;;;;5026042;28;20055;-68
2021/10/04 02:03:25;;;;;;;8.32;1.90;;;11.40;99.90;;;;;;5038144;28;21302;-68
2021/10/04 02:05:51;;;;;;;3.22;2.03;;;11.40;99.90;;;;;;5045370;28;20037;-68
2021/10/04 02:08:16;;;;;;;4.45;1.95;;;11.30;99.90;;;;;;5038508;28;20041;-68
2021/10/04 02:10:42;;;;;;;4.10;1.48;;;11.30;99.90;;;;;;5042425;28;20356;-68
2021/10/04 02:13:10;;;;;;;5.60;1.65;;;11.40;99.90;;;;;;5019895;28;20052;-68
2021/10/04 02:15:37;;;;;;;5.28;1.60;;;11.40;99.90;;;;;;5045159;28;20041;-68
2021/10/04 02:18:04;;;;;;;8.57;2.70;;;11.40;99.90;;;;;;5043963;28;20037;-68
2021/10/04 02:20:33;;;;;;;6.15;1.35;;;11.40;99.90;;;;;;5021470;28;20053;-68
2021/10/04 02:23:10;;;;;;;2.50;1.33;;;11.40;99.90;;;;;;5012510;28;20049;-68
2021/10/04 02:25:45;;;;;;;5.50;1.20;;;11.40;99.90;;;;;;5020707;28;20403;-68
2021/10/04 02:28:12;;;;;;;7.10;2.13;;;11.40;99.90;;;;;;5024901;28;20044;-68
2021/10/04 02:30:37;;;;;;;5.00;1.42;;;11.30;99.90;;;;;;5020621;28;20077;-68
2021/10/04 02:33:04;;;;;;;6.95;2.03;;;11.40;99.90;;;;;;5022286;28;20075;-68
2021/10/04 02:35:31;;;;;;;4.60;1.30;;;11.40;99.90;;;;;;5030225;28;20054;-68
2021/10/04 02:37:57;;;;;;;8.13;2.08;;;11.30;99.90;;;;;;5043340;28;20140;-68
2021/10/04 02:40:24;;;;;;;5.43;1.35;;;11.30;99.90;;;;;;5023871;28;20128;-68
2021/10/04 02:42:51;;;;;;;6.57;1.23;;;11.30;99.90;;;;;;5024551;28;20037;-68
2021/10/04 02:45:18;;;;;;;8.07;1.48;;;11.30;99.90;;;;;;5024640;28;20038;-68
2021/10/04 02:47:46;;;;;;;8.38;1.88;;;11.30;99.90;;;;;;5043224;28;20554;-68
2021/10/04 02:50:14;;;;;;;2.75;1.15;;;11.30;99.90;;;;;;5043205;28;20037;-68
2021/10/04 02:52:40;;;;;;;5.80;1.23;;;11.30;99.90;;;;;;5018564;28;20049;-68
2021/10/04 02:55:07;;;;;;;5.72;1.52;;;11.30;99.90;;;;;;5037082;28;20041;-68
2021/10/04 02:57:33;;;;;;;6.00;1.67;;;11.30;99.90;;;;;;5041919;28;20045;-68
2021/10/04 02:59:59;;;;;;;2.15;1.30;;;11.30;99.90;;;;;;5046806;28;20107;-68
2021/10/04 03:02:28;;;;;;;3.60;1.20;;;11.30;99.90;;;;;;5038182;28;20148;-68
2021/10/04 03:04:54;;;;;;;7.53;1.60;;;11.30;99.90;;;;;;5028570;28;20068;-68
2021/10/04 03:07:19;;;;;;;5.82;1.73;;;11.20;99.90;;;;;;5061309;28;20503;-68
2021/10/04 03:09:45;;;;;;;5.13;1.48;;;11.30;99.90;;;;;;5044360;28;20043;-68
2021/10/04 03:12:11;;;;;;;5.15;1.00;;;11.20;99.90;;;;;;5030044;28;20120;-68
2021/10/04 03:14:37;;;;;;;4.43;1.48;;;11.20;99.90;;;;;;5042435;28;20698;-68
2021/10/04 03:17:03;;;;;;;5.00;1.13;;;11.20;99.90;;;;;;5047341;28;20041;-68
2021/10/04 03:19:28;;;;;;;3.70;0.90;;;11.20;99.90;;;;;;5030658;28;20063;-68
2021/10/04 03:21:57;;;;;;;5.70;0.90;;;11.20;99.90;;;;;;5043705;28;20437;-68
2021/10/04 03:24:23;;;;;;;5.50;0.93;;;11.20;99.90;;;;;;5046194;28;20041;-68
2021/10/04 03:26:48;;;;;;;6.50;1.33;;;11.20;99.90;;;;;;5029471;28;20076;-68
2021/10/04 03:29:16;;;;;;;4.78;1.17;;;11.20;99.90;;;;;;5033889;28;20049;-68
2021/10/04 03:31:43;;;;;;;5.20;0.88;;;11.20;99.90;;;;;;5032182;28;20048;-68
2021/10/04 03:34:10;;;;;;;4.88;1.05;;;11.10;99.90;;;;;;5040859;28;20045;-68
2021/10/04 03:36:36;;;;;;;8.88;1.20;;;11.10;99.90;;;;;;5026232;28;20041;-68
2021/10/04 03:39:02;;;;;;;6.82;1.45;;;11.10;99.90;;;;;;5031597;28;20051;-68
2021/10/04 03:41:29;;;;;;;6.30;0.95;;;11.10;99.90;;;;;;5049864;28;20143;-68
2021/10/04 03:43:55;;;;;;;3.88;1.15;;;11.10;99.90;;;;;;5046427;28;20098;-68
2021/10/04 03:46:21;;;;;;;5.30;1.00;;;11.10;99.90;;;;;;5028830;28;20037;-68
2021/10/04 03:48:47;;;;;;;7.28;0.80;;;11.10;99.90;;;;;;5054050;28;20052;-68
2021/10/04 03:51:13;;;;;;;4.63;1.25;;;11.10;99.90;;;;;;5046997;28;20037;-68
2021/10/04 03:53:38;;;;;;;5.63;1.00;;;11.10;99.90;;;;;;5024998;28;20094;-68
2021/10/04 03:56:04;;;;;;;5.30;1.10;;;11.10;99.90;;;;;;5029822;28;20402;-68
2021/10/04 03:58:30;;;;;;;6.53;1.10;;;11.20;99.90;;;;;;5029851;28;20390;-68
2021/10/04 04:00:55;;;;;;;4.55;0.88;;;11.20;99.90;;;;;;5047260;28;20375;-68
2021/10/04 04:03:21;;;;;;;6.07;1.00;;;11.10;99.90;;;;;;5025297;28;20044;-68
2021/10/04 04:05:47;;;;;;;3.17;0.98;;;11.20;99.90;;;;;;5045550;28;20087;-68
2021/10/04 04:08:15;;;;;;;5.38;0.95;;;11.10;99.90;;;;;;5026036;28;20144;-68
2021/10/04 04:10:41;;;;;;;5.40;1.13;;;11.20;99.90;;;;;;5050745;28;20084;-68
2021/10/04 04:13:07;;;;;;;5.40;1.02;;;11.10;99.90;;;;;;5049673;28;20041;-68
2021/10/04 04:15:32;;;;;;;3.25;1.05;;;11.10;99.90;;;;;;5030668;28;20055;-68
2021/10/04 04:17:58;;;;;;;2.63;0.80;;;11.20;99.90;;;;;;5029261;28;20037;-68
2021/10/04 04:20:24;;;;;;;6.47;1.55;;;11.10;99.90;;;;;;5047639;28;20444;-68
2021/10/04 04:22:50;;;;;;;8.32;1.00;;;11.10;99.90;;;;;;5026900;28;20156;-68
2021/10/04 04:25:15;;;;;;;5.05;1.20;;;11.10;99.90;;;;;;5042719;28;20095;-68
2021/10/04 04:27:42;;;;;;;8.10;1.90;;;11.10;99.90;;;;;;5030037;28;20483;-68
2021/10/04 04:30:09;;;;;;;4.68;0.85;;;11.10;99.90;;;;;;5044994;28;20037;-68
2021/10/04 04:32:35;;;;;;;6.38;1.20;;;11.10;99.90;;;;;;5045259;28;20061;-68
2021/10/04 04:35:05;;;;;;;4.30;0.98;;;11.10;99.90;;;;;;5045382;28;20041;-68
2021/10/04 04:37:32;;;;;;;7.93;1.63;;;11.10;99.90;;;;;;5023689;28;20091;-68
2021/10/04 04:39:58;;;;;;;5.30;0.85;;;11.10;99.90;;;;;;5044079;28;20045;-68
2021/10/04 04:42:25;;;;;;;5.07;1.00;;;11.10;99.90;;;;;;5030862;28;20041;-68
2021/10/04 04:44:52;;;;;;;8.57;1.08;;;11.10;99.90;;;;;;5047097;28;20064;-68
2021/10/04 04:47:17;;;;;;;6.50;0.90;;;11.10;99.90;;;;;;5046013;28;20432;-68
2021/10/04 04:49:43;;;;;;;5.20;1.20;;;11.10;99.90;;;;;;5065827;28;20041;-68
2021/10/04 04:52:08;;;;;;;5.13;0.70;;;11.10;99.90;;;;;;5031987;28;20047;-68
2021/10/04 04:54:34;;;;;;;4.75;0.90;;;11.10;99.90;;;;;;5037802;28;20040;-68
2021/10/04 04:57:01;;;;;;;5.22;0.88;;;11.10;99.90;;;;;;5019394;28;20387;-68
2021/10/04 04:59:27;;;;;;;4.68;0.80;;;11.10;99.90;;;;;;5045705;28;20466;-68
2021/10/04 05:01:53;;;;;;;8.00;0.73;;;11.10;99.90;;;;;;5027905;28;20032;-68
2021/10/04 05:04:18;;;;;;;5.38;0.90;;;11.10;99.90;;;;;;5041953;28;20064;-68
2021/10/04 05:06:44;;;;;;;4.35;0.75;;;11.10;99.90;;;;;;5025559;28;20390;-68
2021/10/04 05:09:14;;;;;;;6.93;1.20;;;11.10;99.90;;;;;;5028166;28;20092;-68
2021/10/04 05:11:39;;;;;;;7.47;1.23;;;11.10;99.90;;;;;;5044546;28;20049;-68
2021/10/04 05:14:06;;;;;;;5.55;0.90;;;11.00;99.90;;;;;;5028027;28;20041;-68
2021/10/04 05:16:31;;;;;;;3.75;0.93;;;11.10;99.90;;;;;;5047741;28;20040;-68
2021/10/04 05:18:57;;;;;;;6.00;1.10;;;11.10;99.90;;;;;;5042773;28;20395;-68
2021/10/04 05:21:23;;;;;;;3.63;1.13;;;11.00;99.90;;;;;;5022531;28;20547;-68
2021/10/04 05:23:49;;;;;;;6.10;1.50;;;11.10;99.90;;;;;;5026034;28;20107;-68
2021/10/04 05:26:15;;;;;;;5.95;1.48;;;11.10;99.90;;;;;;5026068;28;20040;-68
2021/10/04 05:28:41;;;;;;;4.80;0.88;;;11.10;99.90;;;;;;5016630;28;20129;-68
2021/10/04 05:31:06;;;;;;;6.45;1.45;;;11.10;99.90;;;;;;5052399;28;20063;-68
2021/10/04 05:33:32;;;;;;;5.30;1.05;;;11.20;99.90;;;;;;5022446;28;20059;-68
2021/10/04 05:35:57;;;;;;;4.47;0.95;;;11.10;99.90;;;;;;5036969;28;20491;-68
2021/10/04 05:38:23;;;;;;;3.40;1.33;;;11.10;99.90;;;;;;5036531;28;20048;-68
2021/10/04 05:40:49;;;;;;;5.90;0.93;;;11.10;99.90;;;;;;5019542;28;20069;-68
2021/10/04 05:43:17;;;;;;;6.70;0.88;;;11.10;99.90;;;;;;5020078;28;20075;-68
2021/10/04 05:45:44;;;;;;;3.38;0.98;;;11.10;99.90;;;;;;5038023;28;20045;-68
2021/10/04 05:48:10;;;;;;;6.45;1.58;;;11.20;99.90;;;;;;5040344;28;20045;-68
2021/10/04 05:50:49;;;;;;;6.18;1.00;;;11.10;99.90;;;;;;5044535;28;20044;-69
2021/10/04 05:53:15;;;;;;;2.95;0.93;;;11.20;99.90;;;;;;5007297;28;20055;-68
2021/10/04 05:55:41;;;;;;;9.13;1.20;;;11.20;99.90;;;;;;5054995;28;20041;-69
2021/10/04 05:58:07;;;;;;;2.47;0.80;;;11.20;99.90;;;;;;5037716;28;20128;-68
2021/10/04 06:00:33;;;;;;;9.23;0.75;;;11.20;99.90;;;;;;5039137;28;20037;-68
2021/10/04 06:03:04;;;;;;;3.78;0.68;;;11.20;99.90;;;;;;5037852;28;20044;-68
2021/10/04 06:05:29;;;;;;;3.95;0.80;;;11.20;99.90;;;;;;5020876;28;20048;-68
2021/10/04 06:07:55;;;;;;;3.83;0.90;;;11.20;99.90;;;;;;5021725;28;20036;-68
2021/10/04 06:10:21;;;;;;;5.30;1.08;;;11.20;99.90;;;;;;5035421;28;20051;-68
2021/10/04 06:12:47;;;;;;;6.72;0.95;;;11.20;99.90;;;;;;5020024;28;20037;-69
2021/10/04 06:15:16;;;;;;;5.05;0.77;;;11.20;99.90;;;;;;5017804;28;20037;-69
2021/10/04 06:17:43;;;;;;;2.55;0.70;;;11.30;99.90;;;;;;5042246;28;20033;-68
2021/10/04 06:20:10;;;;;;;5.78;1.08;;;11.30;99.90;;;;;;5038579;28;20041;-68
2021/10/04 06:22:36;;;;;;;3.40;0.90;;;11.40;99.90;;;;;;5037912;28;20491;-68
2021/10/04 06:25:04;;;;;;;5.43;1.23;;;11.40;99.90;;;;;;5057275;28;20531;-68
2021/10/04 06:27:31;;;;;;;4.63;0.98;;;11.30;99.90;;;;;;5022501;28;20044;-68
2021/10/04 06:30:00;;;;;;;8.45;1.33;;;11.40;99.90;;;;;;5036584;28;20048;-68
2021/10/04 06:32:26;;;;;;;2.97;0.95;;;11.40;99.90;;;;;;5038651;28;20060;-69
2021/10/04 06:34:52;;;;;;;7.13;1.70;;;11.40;99.90;;;;;;5018518;28;20045;-68
2021/10/04 06:37:18;;;;;;;5.90;1.00;;;11.40;99.90;;;;;;5038859;28;20060;-68
2021/10/04 06:39:43;;;;;;;2.30;0.65;;;11.40;99.90;;;;;;5007386;28;20053;-69
2021/10/04 06:42:09;;;;;;;6.03;0.98;;;11.40;99.90;;;;;;5041484;28;20029;-68
2021/10/04 06:44:35;;;;;;;3.22;0.88;;;11.40;99.90;;;;;;5035211;28;20072;-68
2021/10/04 06:47:01;;;;;;;3.20;0.80;;;11.50;99.90;;;;;;5022568;28;20092;-68
2021/10/04 06:49:27;;;;;;;8.13;1.10;;;11.50;99.90;;;;;;5033878;28;20053;-68
2021/10/04 06:51:53;;;;;;;7.53;1.17;;;11.50;99.90;;;;;;5034676;28;20046;-69
2021/10/04 06:54:18;;;;;;;6.65;1.38;;;11.50;99.90;;;;;;5007830;28;20498;-68
2021/10/04 06:56:45;;;;;;;4.20;1.13;;;11.50;99.90;;;;;;5032581;28;20033;-68
2021/10/04 06:59:11;;;;;;;5.00;1.02;;;11.50;99.90;;;;;;5021339;28;20064;-68
2021/10/04 07:01:37;;;;;;;7.15;1.48;;;11.50;99.90;;;;;;5027048;28;20041;-68
2021/10/04 07:04:04;;;;;;;7.05;1.20;;;11.50;99.90;;;;;;5008519;28;20048;-68
2021/10/04 07:06:31;;;;;;;4.10;1.35;;;11.50;99.90;;;;;;5038602;28;20049;-68
2021/10/04 07:08:57;;;;;;;10.90;1.45;;;11.50;99.90;;;;;;5036739;28;20052;-68
2021/10/04 07:11:24;;;;;;;3.65;1.00;;;11.60;99.90;;;;;;5022957;28;20496;-68
2021/10/04 07:13:50;;;;;;;7.82;1.20;;;11.50;99.90;;;;;;5026549;28;21101;-68
2021/10/04 07:16:17;;;;;;;5.90;1.10;;;11.60;99.90;;;;;;5017028;28;20038;-68
2021/10/04 07:18:43;;;;;;;6.63;0.80;;;11.50;99.90;;;;;;5022069;28;20053;-69
2021/10/04 07:21:09;;;;;;;2.85;0.93;;;11.60;99.90;;;;;;5019867;28;20406;-68
2021/10/04 07:23:35;;;;;;;4.93;1.20;;;11.60;99.90;;;;;;5018007;28;20065;-68
2021/10/04 07:26:01;;;;;;;5.30;1.48;;;11.70;99.90;;;;;;5019333;28;20476;-68
2021/10/04 07:28:27;;;;;;;5.20;0.90;;;11.60;99.90;;;;;;5036967;28;20041;-68
2021/10/04 07:30:53;;;;;;;5.75;0.90;;;11.60;99.90;;;;;;5024057;28;20033;-68
2021/10/04 07:33:19;;;;;;;4.88;1.20;;;11.70;99.90;;;;;;5016691;28;20067;-68
2021/10/04 07:35:44;;;;;;;3.47;0.90;;;11.70;99.90;;;;;;5020576;28;20041;-68
2021/10/04 07:38:10;;;;;;;3.47;0.90;;;11.70;99.90;;;;;;5018966;28;22089;-69
2021/10/04 07:40:37;;;;;;;6.10;1.17;;;11.70;99.90;;;;;;5026202;28;20466;-68
2021/10/04 07:43:03;;;;;;;5.05;1.08;;;11.80;99.90;;;;;;5018799;28;20065;-68
2021/10/04 07:45:32;;;;;;;5.47;1.52;;;11.80;99.90;;;;;;5004583;28;20054;-68
2021/10/04 07:47:59;;;;;;;8.85;1.27;;;11.80;99.90;;;;;;5037046;28;20406;-68
2021/10/04 07:50:24;;;;;;;2.63;0.70;;;11.80;99.90;;;;;;5022594;28;20050;-68
2021/10/04 07:52:50;;;;;;;4.10;1.15;;;11.90;99.90;;;;;;5055407;28;20048;-68
2021/10/04 07:55:16;;;;;;;10.75;1.17;;;11.90;99.90;;;;;;5043184;28;20112;-68
2021/10/04 07:57:44;;;;;;;5.45;1.20;;;11.90;99.90;;;;;;5024909;28;20146;-68
2021/10/04 08:00:11;;;;;;;2.53;0.90;;;11.90;99.90;;;;;;5046921;28;20048;-69
2021/10/04 08:02:37;;;;;;;3.70;0.98;;;11.90;99.90;;;;;;5039188;28;20145;-68
2021/10/04 08:05:04;;;;;;;4.85;1.20;;;12.00;99.90;;;;;;5031304;28;20076;-69
2021/10/04 08:07:29;;;;;;;8.43;0.80;;;12.10;99.90;;;;;;5010577;28;20506;-68
2021/10/04 08:09:55;;;;;;;7.40;0.98;;;12.10;99.90;;;;;;5031162;28;20033;-68
2021/10/04 08:12:23;;;;;;;6.53;1.00;;;12.10;99.90;;;;;;5020331;28;20044;-68
2021/10/04 08:14:49;;;;;;;4.88;2.03;;;12.20;99.90;;;;;;5036353;28;20498;-68
2021/10/04 08:17:15;;;;;;;3.85;1.10;;;12.20;99.90;;;;;;5006220;28;20057;-69
2021/10/04 08:19:41;;;;;;;6.32;1.10;;;12.20;99.90;;;;;;5040795;28;20107;-68
2021/10/04 08:22:08;;;;;;;8.00;2.20;;;12.20;99.90;;;;;;5021707;28;20041;-68
2021/10/04 08:24:33;;;;;;;4.80;1.05;;;12.20;99.90;;;;;;5029315;28;20041;-68
2021/10/04 08:26:59;;;;;;;2.45;0.82;;;12.30;99.90;;;;;;5041840;28;20925;-68
2021/10/04 08:29:25;;;;;;;4.63;1.27;;;12.30;99.90;;;;;;5038490;28;20038;-68
2021/10/04 08:31:50;;;;;;;5.72;0.80;;;12.30;99.90;;;;;;5040410;28;20044;-69
2021/10/04 08:34:16;;;;;;;2.92;1.00;;;12.40;99.90;;;;;;5022334;28;20037;-68
2021/10/04 08:36:41;;;;;;;5.07;0.80;;;12.40;99.90;;;;;;5038151;28;20160;-69
2021/10/04 08:39:07;;;;;;;7.15;1.30;;;12.40;99.90;;;;;;5038467;28;20037;-69
2021/10/04 08:41:35;;;;;;;5.07;1.00;;;12.50;99.90;;;;;;5024023;28;20057;-68
2021/10/04 08:44:11;;;;;;;7.07;0.82;;;12.60;99.90;;;;;;5018774;28;20494;-68
2021/10/04 08:46:41;;;;;;;3.97;1.05;;;12.70;99.90;;;;;;5040014;28;20610;-68
2021/10/04 08:49:07;;;;;;;4.55;1.27;;;12.90;99.90;;;;;;5036831;28;20045;-68
2021/10/04 08:51:47;;;;;;;5.32;0.85;;;12.90;99.90;;;;;;5019611;28;20095;-68
2021/10/04 08:54:13;;;;;;;3.85;0.90;;;13.10;99.90;;;;;;5017388;28;20041;-69
2021/10/04 08:56:39;;;;;;;4.55;0.75;;;13.20;99.90;;;;;;5020627;28;20682;-68
2021/10/04 08:59:05;;;;;;;8.18;1.30;;;13.30;99.90;;;;;;5020959;28;20072;-69
2021/10/04 09:01:31;;;;;;;3.83;0.68;;;13.40;99.90;;;;;;5018763;28;20064;-69
2021/10/04 09:03:59;;;;;;;3.30;0.63;;;13.50;99.90;;;;;;5037870;28;20025;-69
2021/10/04 09:06:26;;;;;;;4.38;0.90;;;13.50;99.90;;;;;;5028192;28;20040;-69
2021/10/04 09:08:57;;;;;;;4.97;0.88;;;13.60;99.90;;;;;;5020317;28;20037;-69
2021/10/04 09:11:34;;;;;;;3.35;0.80;;;13.70;99.90;;;;;;5054045;28;20045;-69
2021/10/04 09:14:11;;;;;;;3.70;1.45;;;13.80;99.90;;;;;;5030273;28;20033;-69
2021/10/04 09:16:50;;;;;;;4.10;1.23;;;13.80;99.90;;;;;;5032457;28;20037;-69
2021/10/04 09:19:27;;;;;;;5.75;1.33;;;13.90;99.90;;;;;;5034464;28;20045;-69
2021/10/04 09:22:05;;;;;;;7.18;2.42;;;14.00;99.90;;;;;;5021922;28;20059;-69
2021/10/04 09:24:32;;;;;;;7.90;1.08;;;14.10;99.90;;;;;;5039029;28;20077;-69
2021/10/04 09:26:58;;;;;;;9.02;1.30;;;14.10;99.90;;;;;;5004826;28;20045;-69
2021/10/04 09:29:27;;;;;;;4.88;0.93;;;14.30;99.90;;;;;;5037987;28;20059;-69
2021/10/04 09:31:55;;;;;;;2.72;0.93;;;14.40;99.90;;;;;;5019638;28;20033;-69
2021/10/04 09:34:24;;;;;;;8.00;1.00;;;14.50;99.90;;;;;;5018678;28;20426;-69
2021/10/04 09:36:59;;;;;;;4.03;0.80;;;14.50;99.90;;;;;;5021087;28;20040;-69
2021/10/04 09:39:33;;;;;;;2.83;0.88;;;14.60;99.90;;;;;;5038155;28;20046;-69
2021/10/04 09:42:18;;;;;;;4.68;0.93;;;14.70;99.90;;;;;;5036017;28;20376;-69
2021/10/04 09:44:55;;;;;;;3.22;0.80;;;14.70;99.90;;;;;;5034799;28;20475;-69
2021/10/04 09:48:00;;;;;;;6.57;1.42;;;14.80;99.90;;;;;;5020543;28;20053;-70
2021/10/04 09:50:29;;;;;;;6.60;1.30;;;14.90;99.90;;;;;;5038337;28;20703;-69
2021/10/04 09:53:12;;;;;;;5.07;1.13;;;15.00;99.90;;;;;;5020335;28;20065;-69
2021/10/04 09:55:45;;;;;;;3.72;1.20;;;15.00;99.90;;;;;;5017572;28;20160;-70
2021/10/04 09:58:15;;;;;;;11.20;1.20;;;15.20;99.90;;;;;;5017020;28;20044;-69
2021/10/04 10:01:13;;;;;;;4.80;0.73;;;15.30;99.90;;;;;;5037566;28;20040;-69
2021/10/04 10:03:45;;;;;;;5.03;1.10;;;15.50;99.90;;;;;;5033285;28;20049;-69
2021/10/04 10:06:12;;;;;;;3.55;1.10;;;15.70;99.90;;;;;;5032036;28;20041;-69
2021/10/04 10:08:38;;;;;;;6.53;0.80;;;15.90;99.90;;;;;;5019352;28;20487;-69
2021/10/04 10:11:06;;;;;;;7.95;1.55;;;15.90;99.90;;;;;;5039779;28;20052;-69
2021/10/04 10:13:33;;;;;;;5.13;0.75;;;16.00;99.90;;;;;;4991991;28;20543;-68
2021/10/04 10:16:20;;;;;;;4.30;0.80;;;16.20;99.90;;;;;;5040834;28;20049;-69
2021/10/04 10:18:52;;;;;;;4.82;0.85;;;16.30;99.90;;;;;;5037919;28;20049;-69
2021/10/04 10:21:27;;;;;;;5.90;0.90;;;16.50;99.90;;;;;;5037122;28;20059;-69
2021/10/04 10:23:59;;;;;;;4.72;0.95;;;16.70;99.90;;;;;;5020138;28;20415;-68
2021/10/04 10:26:32;;;;;;;5.80;1.02;;;16.80;99.90;;;;;;5022541;28;20131;-69
2021/10/04 10:29:13;;;;;;;3.17;0.70;;;16.90;99.90;;;;;;5037566;28;20041;-69
2021/10/04 10:31:57;;;;;;;4.82;1.05;;;17.10;99.90;;;;;;5040307;28;20072;-69
2021/10/04 10:34:24;;;;;;;4.97;0.70;;;17.20;99.90;;;;;;5030355;28;20045;-69
2021/10/04 10:37:10;;;;;;;3.00;0.60;;;17.20;99.90;;;;;;5056231;28;20129;-69
2021/10/04 10:40:14;;;;;;;5.28;1.10;;;17.30;99.90;;;;;;5038601;28;20037;-69
2021/10/04 10:42:41;;;;;;;5.50;1.05;;;17.50;99.90;;;;;;4987429;28;20077;-69
2021/10/04 10:45:10;;;;;;;2.80;0.50;;;17.60;99.90;;;;;;5038434;28;20136;-69
2021/10/04 10:47:39;;;;;;;8.23;0.90;;;17.70;99.90;;;;;;5025686;28;20131;-69
2021/10/04 10:50:14;;;;;;;4.63;0.77;;;17.80;99.90;;;;;;5039774;28;20909;-69
2021/10/04 10:52:42;;;;;;;;;;;17.90;99.90;;;;;;5023778;28;20140;-69
2021/10/04 10:55:19;;;;;;;6.95;0.60;;;18.00;99.90;;;;;;5035744;28;19924;-69
2021/10/04 10:58:06;;;;;;;4.57;0.73;;;18.00;99.90;;;;;;5030767;28;20040;-69
2021/10/04 11:00:47;;;;;;;4.60;0.90;;;18.00;99.90;;;;;;5018904;28;20044;-69
2021/10/04 11:03:20;;;;;;;5.47;1.05;;;18.10;99.90;;;;;;5031376;28;20146;-69
2021/10/04 11:05:56;;;;;;;3.03;0.90;;;17.90;99.90;;;;;;5035803;28;21392;-69
2021/10/04 11:08:29;;;;;;;5.30;1.17;;;17.90;99.90;;;;;;5031750;28;20063;-69
2021/10/04 11:11:00;;;;;;;3.78;0.70;;;18.00;99.90;;;;;;5040874;28;20060;-69
2021/10/04 11:13:36;;;;;;;5.93;0.60;;;18.10;99.90;;;;;;5026361;28;20051;-70
2021/10/04 11:16:05;;;;;;;2.45;0.52;;;18.30;99.90;;;;;;5034904;28;20048;-69
2021/10/04 11:18:45;;;;;;;7.05;0.70;;;18.40;99.90;;;;;;5034632;28;20044;-69
2021/10/04 11:21:20;;;;;;;9.95;1.25;;;18.40;99.90;;;;;;5015122;28;20048;-68
2021/10/04 11:23:49;;;;;;;5.78;0.63;;;18.40;99.90;;;;;;5013020;28;20312;-68
2021/10/04 11:26:25;;;;;;;6.90;0.80;;;18.50;99.90;;;;;;5038936;28;20045;-68
2021/10/04 11:28:58;;;;;;;4.57;0.68;;;18.60;99.90;;;;;;5034474;28;20906;-68
2021/10/04 11:31:35;;;;;;;3.80;0.50;;;18.70;99.90;;;;;;5017500;28;20092;-68
2021/10/04 11:34:04;;;;;;;8.05;2.00;;;18.60;99.90;;;;;;5026130;28;20461;-68
2021/10/04 11:36:36;;;;;;;6.32;0.60;;;18.60;99.90;;;;;;5021483;28;20495;-68
2021/10/04 11:39:28;;;;;;;6.13;0.82;;;18.50;99.90;;;;;;5030575;28;20044;-68
2021/10/04 11:42:03;;;;;;;4.30;0.60;;;18.40;99.90;;;;;;5035763;28;20060;-68
2021/10/04 11:44:30;;;;;;;8.13;0.73;;;18.40;99.90;;;;;;5029142;28;20491;-68
2021/10/04 11:47:03;;;;;;;6.13;1.25;;;18.50;99.90;;;;;;5016918;28;20041;-68
2021/10/04 11:49:32;;;;;;;6.68;0.93;;;18.70;99.90;;;;;;5030244;28;20454;-69
2021/10/04 11:52:00;;;;;;;4.10;0.45;;;18.70;99.90;;;;;;5020167;28;20041;-68
2021/10/04 11:54:51;;;;;;;6.85;1.08;;;18.70;99.90;;;;;;5049868;28;20095;-68
2021/10/04 11:57:19;;;;;;;5.15;0.60;;;18.70;99.90;;;;;;5038540;28;20048;-68
2021/10/04 11:59:57;;;;;;;4.65;0.50;;;18.60;99.90;;;;;;5033645;28;20053;-68
2021/10/04 12:02:29;;;;;;;5.15;0.60;;;18.70;99.90;;;;;;5028375;28;20047;-68
2021/10/04 12:05:30;;;;;;;5.93;0.65;;;18.70;99.90;;;;;;5018810;28;20128;-68
2021/10/04 12:08:07;;;;;;;4.03;0.63;;;18.80;99.90;;;;;;5038670;28;20048;-68
2021/10/04 12:10:45;;;;;;;5.82;0.60;;;18.90;99.90;;;;;;5037100;28;20099;-68
2021/10/04 12:13:13;;;;;;;5.32;0.77;;;18.90;99.90;;;;;;5033925;28;20904;-68
2021/10/04 12:15:41;;;;;;;5.55;0.75;;;18.80;99.90;;;;;;5029671;28;20063;-68
2021/10/04 12:18:11;;;;;;;2.75;0.57;;;18.90;99.90;;;;;;5039444;28;20033;-68
2021/10/04 12:20:36;;;;;;;3.03;0.43;;;18.80;99.90;;;;;;5036424;28;20072;-68
2021/10/04 12:23:16;;;;;;;4.07;0.60;;;18.80;99.90;;;;;;5019831;28;20135;-68
2021/10/04 12:25:42;;;;;;;4.82;0.65;;;18.70;99.90;;;;;;5041170;28;20033;-68
2021/10/04 12:28:15;;;;;;;4.03;0.85;;;18.60;99.90;;;;;;5035854;28;20437;-68
2021/10/04 12:30:50;;;;;;;2.65;0.38;;;18.70;99.90;;;;;;5039997;28;20041;-68
2021/10/04 12:33:17;;;;;;;7.78;0.68;;;18.70;99.90;;;;;;5015339;28;20045;-68
2021/10/04 12:35:43;;;;;;;4.72;0.80;;;18.50;99.90;;;;;;5018047;28;20049;-68
2021/10/04 12:38:16;;;;;;;5.57;0.70;;;18.50;99.90;;;;;;5017649;28;20045;-68
2021/10/04 12:40:45;;;;;;;2.63;0.45;;;18.50;99.90;;;;;;5035061;28;20120;-68
2021/10/04 12:43:30;;;;;;;3.63;0.50;;;18.40;99.90;;;;;;5016204;28;21303;-68
2021/10/04 12:46:15;;;;;;;6.40;0.70;;;18.50;99.90;;;;;;5018322;28;20041;-68
2021/10/04 12:48:47;;;;;;;8.07;0.77;;;18.60;99.90;;;;;;5021761;28;20076;-68
2021/10/04 12:51:19;;;;;;;5.65;0.68;;;18.60;99.90;;;;;;5034504;28;20049;-68
2021/10/04 12:53:48;;;;;;;5.35;0.60;;;18.70;99.90;;;;;;5018007;28;20037;-68
2021/10/04 12:56:23;;;;;;;3.28;0.50;;;18.70;99.90;;;;;;5033142;28;20114;-68